createdAt,value
2023-03-18T00:02:04.838Z,95272.84
2023-03-18T00:04:33.936Z,95257.19
2023-03-18T00:07:03.557Z,95272.84
2023-03-18T00:09:33.311Z,95265.56
2023-03-18T00:12:02.870Z,95262.34
2023-03-18T00:14:33.497Z,95258.44
2023-03-18T00:17:03.098Z,95250.81
2023-03-18T00:19:33.595Z,95248.06
2023-03-18T00:22:02.627Z,95248.41
2023-03-18T00:24:31.781Z,95243.69
2023-03-18T00:27:01.395Z,95239.31
2023-03-18T00:29:30.994Z,95245.50
2023-03-18T00:32:01.641Z,95246.16
2023-03-18T00:34:31.280Z,95236.72
2023-03-18T00:37:00.507Z,95235.91
2023-03-18T00:39:33.166Z,95228.25
2023-03-18T00:42:10.839Z,95227.25
2023-03-18T00:44:40.138Z,95224.34
2023-03-18T00:47:10.661Z,95229.53
2023-03-18T00:49:39.699Z,95220.47
2023-03-18T00:52:08.850Z,95220.91
2023-03-18T00:54:38.039Z,95219.09
2023-03-18T00:57:07.167Z,95216.47
2023-03-18T00:59:37.361Z,95219.41
2023-03-18T01:02:06.734Z,95216.84
2023-03-18T01:04:37.163Z,95211.63
2023-03-18T01:07:06.347Z,95207.34
2023-03-18T01:09:36.095Z,95220.34
2023-03-18T01:12:06.470Z,95214.03
2023-03-18T01:14:36.617Z,95215.69
2023-03-18T01:17:06.548Z,95210.28
2023-03-18T01:19:37.578Z,95212.44
2023-03-18T01:22:07.756Z,95215.06
2023-03-18T01:24:45.342Z,95207.41
2023-03-18T01:27:16.803Z,95212.44
2023-03-18T01:29:49.034Z,95219.16
2023-03-18T01:32:24.360Z,95211.50
2023-03-18T01:34:55.013Z,95215.56
2023-03-18T01:37:26.895Z,95216.88
2023-03-18T01:40:10.404Z,95212.63
2023-03-18T01:42:41.480Z,95213.13
2023-03-18T01:45:19.660Z,95211.00
2023-03-18T01:47:51.791Z,95205.00
2023-03-18T01:50:25.902Z,95207.91
2023-03-18T01:52:59.497Z,95195.75
2023-03-18T01:55:32.083Z,95194.44
2023-03-18T01:58:04.905Z,95189.25
2023-03-18T02:00:34.938Z,95187.66
2023-03-18T02:03:05.068Z,95182.06
2023-03-18T02:05:36.083Z,95180.94
2023-03-18T02:08:05.371Z,95178.19
2023-03-18T02:10:35.106Z,95182.88
2023-03-18T02:13:08.171Z,95188.94
2023-03-18T02:15:47.233Z,95188.63
2023-03-18T02:18:21.528Z,95178.06
2023-03-18T02:21:07.517Z,95189.31
2023-03-18T02:23:47.325Z,95193.72
2023-03-18T02:26:23.289Z,95192.25
2023-03-18T02:28:58.506Z,95188.81
2023-03-18T02:31:29.600Z,95187.69
2023-03-18T02:34:00.312Z,95187.19
2023-03-18T02:36:31.883Z,95181.19
2023-03-18T02:39:06.312Z,95184.75
2023-03-18T02:41:37.834Z,95184.59
2023-03-18T02:44:09.043Z,95183.44
2023-03-18T02:46:56.473Z,95185.41
2023-03-18T02:49:27.899Z,95193.34
2023-03-18T02:51:58.071Z,95189.31
2023-03-18T02:54:29.812Z,95195.66
2023-03-18T02:56:59.476Z,95188.00
2023-03-18T02:59:32.659Z,95189.31
2023-03-18T03:02:02.886Z,95200.03
2023-03-18T03:04:32.229Z,95193.88
2023-03-18T03:07:02.439Z,95191.75
2023-03-18T03:09:45.856Z,95193.69
2023-03-18T03:12:16.496Z,95191.41
2023-03-18T03:14:53.888Z,95193.22
2023-03-18T03:17:22.997Z,95196.16
2023-03-18T03:19:52.624Z,95197.28
2023-03-18T03:22:21.634Z,95194.19
2023-03-18T03:24:51.186Z,95190.94
2023-03-18T03:27:20.628Z,95189.16
2023-03-18T03:29:49.898Z,95184.44
2023-03-18T03:32:22.853Z,95190.63
2023-03-18T03:34:52.641Z,95198.28
2023-03-18T03:37:21.753Z,95192.41
2023-03-18T03:39:50.978Z,95198.25
2023-03-18T03:42:21.376Z,95198.09
2023-03-18T03:44:51.030Z,95202.47
2023-03-18T03:47:21.698Z,95207.19
2023-03-18T03:49:51.380Z,95206.06
2023-03-18T03:52:20.537Z,95201.03
2023-03-18T03:54:50.892Z,95211.09
2023-03-18T03:57:20.734Z,95211.56
2023-03-18T03:59:53.088Z,95213.53
2023-03-18T04:02:30.271Z,95214.19
2023-03-18T04:05:02.541Z,95214.66
2023-03-18T04:07:33.046Z,95209.47
2023-03-18T04:10:03.467Z,95209.94
2023-03-18T04:12:33.444Z,95219.88
2023-03-18T04:15:04.321Z,95220.53
2023-03-18T04:17:36.408Z,95214.16
2023-03-18T04:20:06.358Z,95221.31
2023-03-18T04:22:36.665Z,95227.16
2023-03-18T04:25:09.350Z,95225.69
2023-03-18T04:27:38.959Z,95227.16
2023-03-18T04:30:12.178Z,95229.09
2023-03-18T04:33:00.127Z,95233.63
2023-03-18T04:35:31.276Z,95231.69
2023-03-18T04:38:01.224Z,95238.97
2023-03-18T04:40:31.456Z,95246.47
2023-03-18T04:43:02.089Z,95248.41
2023-03-18T04:45:32.054Z,95243.88
2023-03-18T04:48:06.045Z,95255.25
2023-03-18T04:50:39.989Z,95254.28
2023-03-18T04:53:12.292Z,95257.53
2023-03-18T04:55:45.267Z,95254.56
2023-03-18T04:58:16.686Z,95263.53
2023-03-18T05:00:57.198Z,95258.34
2023-03-18T05:03:34.332Z,95262.38
2023-03-18T05:06:03.889Z,95267.06
2023-03-18T05:08:53.239Z,95272.41
2023-03-18T05:11:25.510Z,95273.59
2023-03-18T05:13:56.360Z,95268.56
2023-03-18T05:16:30.382Z,95265.88
2023-03-18T05:19:00.892Z,95269.50
2023-03-18T05:21:30.684Z,95277.00
2023-03-18T05:24:02.051Z,95282.34
2023-03-18T05:26:37.739Z,95286.25
2023-03-18T05:29:07.720Z,95289.75
2023-03-18T05:31:44.057Z,95292.78
2023-03-18T05:34:15.473Z,95300.00
2023-03-18T05:36:45.615Z,95296.19
2023-03-18T05:39:15.033Z,95295.03
2023-03-18T05:41:44.214Z,95288.13
2023-03-18T05:44:18.337Z,95301.72
2023-03-18T05:46:52.509Z,95292.63
2023-03-18T05:49:43.375Z,95299.78
2023-03-18T05:52:31.377Z,95296.88
2023-03-18T05:55:04.833Z,95291.50
2023-03-18T05:57:39.034Z,95297.38
2023-03-18T06:00:13.919Z,95299.50
2023-03-18T06:02:47.791Z,95302.38
2023-03-18T06:05:21.354Z,95309.53
2023-03-18T06:07:50.825Z,95310.13
2023-03-18T06:10:20.537Z,95316.16
2023-03-18T06:12:50.968Z,95307.09
2023-03-18T06:15:21.608Z,95307.41
2023-03-18T06:17:51.894Z,95315.97
2023-03-18T06:20:23.645Z,95310.56
2023-03-18T06:22:52.680Z,95311.47
2023-03-18T06:25:22.866Z,95307.66
2023-03-18T06:27:52.565Z,95304.72
2023-03-18T06:30:25.492Z,95306.91
2023-03-18T06:32:55.108Z,95305.00
2023-03-18T06:35:30.608Z,95299.84
2023-03-18T06:38:00.062Z,95288.72
2023-03-18T06:40:29.418Z,95289.31
2023-03-18T06:42:59.403Z,95284.72
2023-03-18T06:45:36.559Z,95287.16
2023-03-18T06:48:09.872Z,95286.56
2023-03-18T06:50:44.338Z,95282.91
2023-03-18T06:53:24.474Z,95281.31
2023-03-18T06:55:57.478Z,95284.75
2023-03-18T06:58:30.824Z,95275.91
2023-03-18T07:01:08.810Z,95270.56
2023-03-18T07:03:43.855Z,95286.03
2023-03-18T07:06:15.806Z,95275.25
2023-03-18T07:08:46.456Z,95277.03
2023-03-18T07:11:18.592Z,95278.50
2023-03-18T07:13:51.513Z,95274.88
2023-03-18T07:16:30.998Z,95279.63
2023-03-18T07:19:02.149Z,95280.97
2023-03-18T07:21:36.112Z,95273.38
2023-03-18T07:24:05.975Z,95269.91
2023-03-18T07:26:35.063Z,95264.06
2023-03-18T07:29:04.964Z,95262.19
2023-03-18T07:31:35.444Z,95261.06
2023-03-18T07:34:05.240Z,95265.44
2023-03-18T07:36:37.314Z,95257.97
2023-03-18T07:39:07.025Z,95257.97
2023-03-18T07:41:37.786Z,95259.59
2023-03-18T07:44:08.276Z,95258.69
2023-03-18T07:46:37.417Z,95264.59
2023-03-18T07:49:06.464Z,95266.63
2023-03-18T07:51:37.542Z,95266.00
2023-03-18T07:54:06.904Z,95265.31
2023-03-18T07:56:35.967Z,95266.38
2023-03-18T07:59:06.351Z,95268.94
2023-03-18T08:01:36.137Z,95269.16
2023-03-18T08:04:06.230Z,95263.00
2023-03-18T08:06:36.800Z,95257.97
2023-03-18T08:09:07.443Z,95250.84
2023-03-18T08:11:37.222Z,95248.22
2023-03-18T08:14:06.281Z,95247.63
2023-03-18T08:16:35.308Z,95238.75
2023-03-18T08:19:05.723Z,95247.00
2023-03-18T08:21:35.644Z,95244.53
2023-03-18T08:24:06.669Z,95244.50
2023-03-18T08:26:35.839Z,95241.50
2023-03-18T08:29:05.253Z,95239.59
2023-03-18T08:31:35.040Z,95243.38
2023-03-18T08:34:04.164Z,95245.63
2023-03-18T08:36:33.183Z,95252.53
2023-03-18T08:39:02.468Z,95246.56
2023-03-18T08:41:33.838Z,95245.78
2023-03-18T08:44:03.739Z,95246.72
2023-03-18T08:46:33.484Z,95246.00
2023-03-18T08:49:02.532Z,95249.38
2023-03-18T08:51:32.916Z,95248.41
2023-03-18T08:54:02.177Z,95250.00
2023-03-18T08:56:32.593Z,95249.91
2023-03-18T08:59:02.382Z,95247.19
2023-03-18T09:01:32.043Z,95254.19
2023-03-18T09:04:01.320Z,95251.72
2023-03-18T09:06:31.036Z,95249.50
2023-03-18T09:09:00.179Z,95251.38
2023-03-18T09:11:29.456Z,95251.38
2023-03-18T09:14:00.323Z,95253.06
2023-03-18T09:16:29.387Z,95254.94
2023-03-18T09:19:00.146Z,95256.06
2023-03-18T09:21:29.163Z,95256.38
2023-03-18T09:23:58.333Z,95261.28
2023-03-18T09:26:27.532Z,95260.03
2023-03-18T09:28:56.813Z,95260.59
2023-03-18T09:31:27.304Z,95257.59
2023-03-18T09:33:57.040Z,95255.25
2023-03-18T09:36:26.306Z,95255.41
2023-03-18T09:38:55.563Z,95255.16
2023-03-18T09:41:34.366Z,95242.75
2023-03-18T09:44:15.519Z,95241.66
2023-03-18T09:47:00.544Z,95238.91
2023-03-18T09:49:51.866Z,95231.25
2023-03-18T09:52:25.759Z,95244.22
2023-03-18T09:55:03.590Z,95248.19
2023-03-18T09:57:37.184Z,95244.09
2023-03-18T10:00:17.855Z,95249.63
2023-03-18T10:02:53.479Z,95240.44
2023-03-18T10:05:27.987Z,95243.34
2023-03-18T10:08:01.458Z,95246.88
2023-03-18T10:10:36.879Z,95241.56
2023-03-18T10:13:14.344Z,95239.94
2023-03-18T10:15:50.682Z,95238.06
2023-03-18T10:18:28.801Z,95260.06
2023-03-18T10:21:13.371Z,95249.28
2023-03-18T10:23:51.111Z,95248.69
2023-03-18T10:26:26.070Z,95251.09
2023-03-18T10:29:05.417Z,95247.66
2023-03-18T10:31:46.685Z,95249.13
2023-03-18T10:34:20.307Z,95252.47
2023-03-18T10:36:52.750Z,95253.13
2023-03-18T10:39:25.161Z,95249.72
2023-03-18T10:41:56.061Z,95264.03
2023-03-18T10:44:29.302Z,95257.56
2023-03-18T10:47:02.443Z,95252.88
2023-03-18T10:49:35.318Z,95258.88
2023-03-18T10:52:15.584Z,95253.41
2023-03-18T10:54:50.814Z,95250.78
2023-03-18T10:57:21.764Z,95249.38
2023-03-18T10:59:52.452Z,95248.44
2023-03-18T11:02:28.157Z,95242.94
2023-03-18T11:05:01.873Z,95239.88
2023-03-18T11:07:32.530Z,95236.19
2023-03-18T11:10:16.817Z,95234.56
2023-03-18T11:12:46.257Z,95235.44
2023-03-18T11:15:21.467Z,95228.59
2023-03-18T11:17:52.021Z,95229.38
2023-03-18T11:20:25.643Z,95225.56
2023-03-18T11:22:57.826Z,95230.78
2023-03-18T11:25:30.190Z,95228.88
2023-03-18T11:28:02.160Z,95222.25
2023-03-18T11:30:37.250Z,95224.16
2023-03-18T11:33:14.641Z,95212.72
2023-03-18T11:35:50.862Z,95214.41
2023-03-18T11:38:22.639Z,95225.94
2023-03-18T11:40:52.356Z,95219.56
2023-03-18T11:43:23.164Z,95218.06
2023-03-18T11:45:57.672Z,95205.53
2023-03-18T11:48:34.472Z,95214.53
2023-03-18T11:51:41.529Z,95222.09
2023-03-18T11:54:24.135Z,95221.19
2023-03-18T11:56:58.883Z,95222.69
2023-03-18T11:59:39.899Z,95208.22
2023-03-18T12:02:43.461Z,95213.38
2023-03-18T12:05:36.381Z,95215.06
2023-03-18T12:08:16.692Z,95210.28
2023-03-18T12:10:52.802Z,95220.91
2023-03-18T12:13:37.437Z,95202.16
2023-03-18T12:16:14.777Z,95212.75
2023-03-18T12:19:06.822Z,95210.59
2023-03-18T12:21:57.567Z,95211.13
2023-03-18T12:24:44.170Z,95202.94
2023-03-18T12:27:21.600Z,95197.34
2023-03-18T12:30:12.002Z,95208.88
2023-03-18T12:32:43.847Z,95197.22
2023-03-18T12:35:31.510Z,95196.84
2023-03-18T12:38:18.924Z,95198.00
2023-03-18T12:41:01.240Z,95196.78
2023-03-18T12:43:47.311Z,95185.56
2023-03-18T12:46:27.453Z,95196.19
2023-03-18T12:49:04.052Z,95200.78
2023-03-18T12:51:47.800Z,95198.56
2023-03-18T12:54:23.865Z,95198.09
2023-03-18T12:57:00.151Z,95195.25
2023-03-18T12:59:36.619Z,95194.41
2023-03-18T13:02:41.510Z,95194.81
2023-03-18T13:05:27.079Z,95197.75
2023-03-18T13:08:30.399Z,95192.75
2023-03-18T13:11:06.368Z,95203.94
2023-03-18T13:13:41.724Z,95203.19
2023-03-18T13:16:13.956Z,95201.66
2023-03-18T13:18:46.559Z,95202.16
2023-03-18T13:21:20.832Z,95194.50
2023-03-18T13:24:17.703Z,95198.34
2023-03-18T13:27:06.321Z,95197.78
2023-03-18T13:29:45.266Z,95196.28
2023-03-18T13:32:32.294Z,95198.91
2023-03-18T13:35:28.136Z,95198.31
2023-03-18T13:38:11.821Z,95200.28
2023-03-18T13:41:05.991Z,95198.31
2023-03-18T13:43:37.162Z,95199.59
2023-03-18T13:46:20.968Z,95193.81
2023-03-18T13:48:55.351Z,95201.22
2023-03-18T13:51:59.888Z,95186.50
2023-03-18T13:54:36.085Z,95191.38
2023-03-18T13:57:35.393Z,95198.00
2023-03-18T14:00:30.888Z,95190.81
2023-03-18T14:03:17.458Z,95184.53
2023-03-18T14:05:48.173Z,95184.38
2023-03-18T14:08:38.627Z,95184.81
2023-03-18T14:11:47.104Z,95188.59
2023-03-18T14:14:43.487Z,95184.81
2023-03-18T14:17:22.569Z,95184.09
2023-03-18T14:19:58.503Z,95180.69
2023-03-18T14:22:35.903Z,95186.97
2023-03-18T14:25:24.757Z,95189.50
2023-03-18T14:27:56.744Z,95188.22
2023-03-18T14:30:44.446Z,95187.16
2023-03-18T14:33:34.940Z,95183.81
2023-03-18T14:36:10.494Z,95187.47
2023-03-18T14:38:47.610Z,95190.59
2023-03-18T14:41:24.779Z,95192.84
2023-03-18T14:44:02.506Z,95192.69
2023-03-18T14:46:37.691Z,95196.59
2023-03-18T14:49:37.235Z,95193.47
2023-03-18T14:52:17.725Z,95190.69
2023-03-18T14:54:48.451Z,95191.38
2023-03-18T14:57:17.672Z,95187.06
2023-03-18T14:59:46.630Z,95189.66
2023-03-18T15:02:24.933Z,95195.66
2023-03-18T15:04:59.870Z,95189.63
2023-03-18T15:07:36.282Z,95192.84
2023-03-18T15:10:12.176Z,95193.56
2023-03-18T15:12:41.799Z,95195.94
2023-03-18T15:15:16.461Z,95194.31
2023-03-18T15:17:50.434Z,95199.25
2023-03-18T15:20:20.782Z,95194.53
2023-03-18T15:22:51.806Z,95194.63
2023-03-18T15:25:24.665Z,95205.34
2023-03-18T15:27:56.744Z,95210.41
2023-03-18T15:30:28.960Z,95205.34
2023-03-18T15:33:06.936Z,95218.44
2023-03-18T15:35:36.945Z,95216.69
2023-03-18T15:38:17.652Z,95222.94
2023-03-18T15:40:52.709Z,95223.09
2023-03-18T15:43:32.975Z,95233.06
2023-03-18T15:46:07.587Z,95228.59
2023-03-18T15:48:41.201Z,95224.88
2023-03-18T15:51:26.137Z,95233.75
2023-03-18T15:53:59.368Z,95238.03
2023-03-18T15:56:31.762Z,95231.56
2023-03-18T15:59:09.249Z,95245.44
2023-03-18T16:01:40.165Z,95246.84
2023-03-18T16:04:12.967Z,95253.16
2023-03-18T16:06:42.237Z,95256.16
2023-03-18T16:09:22.859Z,95249.88
2023-03-18T16:11:55.003Z,95258.50
2023-03-18T16:14:27.534Z,95257.59
2023-03-18T16:16:56.758Z,95256.75
2023-03-18T16:19:28.501Z,95254.53
2023-03-18T16:21:59.363Z,95260.66
2023-03-18T16:24:30.041Z,95267.41
2023-03-18T16:26:59.698Z,95265.63
2023-03-18T16:29:31.985Z,95263.59
2023-03-18T16:32:01.418Z,95261.97
2023-03-18T16:34:30.644Z,95271.38
2023-03-18T16:36:59.880Z,95269.22
2023-03-18T16:39:36.694Z,95271.50
2023-03-18T16:42:07.036Z,95268.09
2023-03-18T16:44:37.196Z,95272.19
2023-03-18T16:47:07.523Z,95274.28
2023-03-18T16:49:41.196Z,95276.75
2023-03-18T16:52:13.530Z,95282.25
2023-03-18T16:54:44.360Z,95284.38
2023-03-18T16:57:19.687Z,95286.16
2023-03-18T16:59:53.059Z,95297.34
2023-03-18T17:02:33.083Z,95291.13
2023-03-18T17:05:02.713Z,95291.94
2023-03-18T17:07:37.023Z,95301.28
2023-03-18T17:10:09.572Z,95298.28
2023-03-18T17:12:39.377Z,95299.09
2023-03-18T17:15:12.194Z,95297.66
2023-03-18T17:17:42.222Z,95303.56
2023-03-18T17:20:18.529Z,95309.66
2023-03-18T17:22:48.534Z,95304.03
2023-03-18T17:25:19.253Z,95312.13
2023-03-18T17:27:50.914Z,95307.88
2023-03-18T17:30:22.108Z,95304.03
2023-03-18T17:32:51.931Z,95313.75
2023-03-18T17:35:24.600Z,95310.09
2023-03-18T17:37:55.924Z,95321.44
2023-03-18T17:40:31.998Z,95322.47
2023-03-18T17:43:01.448Z,95320.66
2023-03-18T17:45:32.598Z,95332.16
2023-03-18T17:48:16.264Z,95328.34
2023-03-18T17:50:46.301Z,95326.91
2023-03-18T17:53:31.568Z,95341.09
2023-03-18T17:56:03.443Z,95341.69
2023-03-18T17:58:34.673Z,95340.44
2023-03-18T18:01:07.368Z,95352.78
2023-03-18T18:03:38.076Z,95354.22
2023-03-18T18:06:08.289Z,95351.78
2023-03-18T18:08:37.593Z,95371.97
2023-03-18T18:11:19.174Z,95378.84
2023-03-18T18:13:49.031Z,95376.38
2023-03-18T18:16:18.996Z,95381.50
2023-03-18T18:18:49.877Z,95384.38
2023-03-18T18:21:22.183Z,95384.63
2023-03-18T18:23:52.694Z,95387.44
2023-03-18T18:26:23.334Z,95394.41
2023-03-18T18:28:54.521Z,95392.03
2023-03-18T18:31:24.368Z,95391.31
2023-03-18T18:33:55.956Z,95397.00
2023-03-18T18:36:28.350Z,95393.16
2023-03-18T18:38:57.462Z,95394.88
2023-03-18T18:41:28.771Z,95400.38
2023-03-18T18:43:57.894Z,95398.47
2023-03-18T18:46:28.459Z,95395.19
2023-03-18T18:48:57.656Z,95404.28
2023-03-18T18:51:27.654Z,95394.38
2023-03-18T18:53:57.097Z,95393.47
2023-03-18T18:56:34.911Z,95399.66
2023-03-18T18:59:08.742Z,95408.91
2023-03-18T19:01:37.751Z,95407.50
2023-03-18T19:04:06.964Z,95410.31
2023-03-18T19:06:36.893Z,95412.22
2023-03-18T19:09:16.748Z,95413.31
2023-03-18T19:11:47.996Z,95415.94
2023-03-18T19:14:22.058Z,95421.22
2023-03-18T19:16:51.773Z,95430.56
2023-03-18T19:19:23.101Z,95427.94
2023-03-18T19:21:52.452Z,95426.31
2023-03-18T19:24:30.634Z,95430.72
2023-03-18T19:27:04.408Z,95431.66
2023-03-18T19:29:34.853Z,95437.28
2023-03-18T19:32:03.900Z,95438.84
2023-03-18T19:34:35.492Z,95440.81
2023-03-18T19:37:06.140Z,95445.44
2023-03-18T19:39:35.168Z,95440.28
2023-03-18T19:42:05.990Z,95448.56
2023-03-18T19:44:35.213Z,95447.25
2023-03-18T19:47:05.157Z,95443.94
2023-03-18T19:49:36.725Z,95443.91
2023-03-18T19:52:14.002Z,95449.16
2023-03-18T19:54:42.981Z,95453.25
2023-03-18T19:57:19.212Z,95451.81
2023-03-18T19:59:50.744Z,95450.72
2023-03-18T20:02:23.390Z,95452.72
2023-03-18T20:04:53.529Z,95452.09
2023-03-18T20:07:25.277Z,95446.75
2023-03-18T20:09:56.279Z,95456.06
2023-03-18T20:12:31.452Z,95450.75
2023-03-18T20:15:00.404Z,95449.47
2023-03-18T20:17:33.066Z,95453.09
2023-03-18T20:20:04.025Z,95454.91
2023-03-18T20:22:36.011Z,95444.59
2023-03-18T20:25:06.887Z,95443.53
2023-03-18T20:27:37.369Z,95438.38
2023-03-18T20:30:23.579Z,95437.13
2023-03-18T20:32:53.454Z,95441.63
2023-03-18T20:35:25.024Z,95437.47
2023-03-18T20:37:54.649Z,95435.78
2023-03-18T20:40:25.842Z,95443.28
2023-03-18T20:42:56.970Z,95433.97
2023-03-18T20:45:27.165Z,95442.00
2023-03-18T20:47:57.439Z,95439.31
2023-03-18T20:50:31.407Z,95440.63
2023-03-18T20:53:01.011Z,95440.13
2023-03-18T20:55:33.169Z,95437.50
2023-03-18T20:58:04.561Z,95441.53
2023-03-18T21:00:34.533Z,95433.22
2023-03-18T21:03:04.512Z,95426.84
2023-03-18T21:05:33.802Z,95428.72
2023-03-18T21:08:03.011Z,95426.97
2023-03-18T21:10:32.110Z,95428.78
2023-03-18T21:13:01.165Z,95423.00
2023-03-18T21:15:33.020Z,95425.19
2023-03-18T21:18:02.905Z,95419.13
2023-03-18T21:20:34.061Z,95419.31
2023-03-18T21:23:04.088Z,95423.09
2023-03-18T21:25:36.504Z,95420.94
2023-03-18T21:28:05.622Z,95413.53
2023-03-18T21:30:37.300Z,95416.31
2023-03-18T21:33:19.292Z,95414.94
2023-03-18T21:35:50.661Z,95417.03
2023-03-18T21:38:20.766Z,95414.94
2023-03-18T21:40:49.884Z,95418.09
2023-03-18T21:43:30.629Z,95420.56
2023-03-18T21:46:01.916Z,95419.69
2023-03-18T21:48:31.832Z,95420.75
2023-03-18T21:51:00.961Z,95419.19
2023-03-18T21:53:30.574Z,95418.53
2023-03-18T21:55:59.820Z,95413.00
2023-03-18T21:58:29.571Z,95421.94
2023-03-18T22:01:02.173Z,95418.78
2023-03-18T22:03:32.706Z,95423.38
2023-03-18T22:06:02.443Z,95426.38
2023-03-18T22:08:31.480Z,95432.59
2023-03-18T22:11:00.891Z,95427.72
2023-03-18T22:13:29.854Z,95425.97
2023-03-18T22:16:01.501Z,95430.25
2023-03-18T22:18:30.464Z,95421.59
2023-03-18T22:20:59.999Z,95428.16
2023-03-18T22:23:31.516Z,95430.44
2023-03-18T22:26:00.615Z,95427.84
2023-03-18T22:28:29.525Z,95430.91
2023-03-18T22:31:03.320Z,95424.22
2023-03-18T22:33:34.866Z,95428.75
2023-03-18T22:36:04.460Z,95422.06
2023-03-18T22:38:33.457Z,95421.56
2023-03-18T22:41:02.607Z,95420.09
2023-03-18T22:43:33.866Z,95417.47
2023-03-18T22:46:06.726Z,95413.69
2023-03-18T22:48:36.202Z,95417.28
2023-03-18T22:51:06.237Z,95409.78
2023-03-18T22:53:37.548Z,95413.38
2023-03-18T22:56:10.837Z,95412.56
2023-03-18T22:58:40.173Z,95406.47
2023-03-18T23:01:15.552Z,95416.09
2023-03-18T23:03:47.023Z,95406.66
2023-03-18T23:06:17.818Z,95407.78
2023-03-18T23:08:47.079Z,95412.69
2023-03-18T23:11:17.357Z,95408.25
2023-03-18T23:13:50.127Z,95411.75
2023-03-18T23:16:23.381Z,95411.44
2023-03-18T23:18:53.990Z,95414.09
2023-03-18T23:21:25.634Z,95417.69
2023-03-18T23:23:56.509Z,95417.06
2023-03-18T23:26:25.444Z,95412.84
2023-03-18T23:28:54.482Z,95411.38
2023-03-18T23:31:25.017Z,95420.00
2023-03-18T23:33:54.491Z,95415.78
2023-03-18T23:36:23.401Z,95420.97
2023-03-18T23:38:52.548Z,95426.19
2023-03-18T23:41:21.560Z,95417.41
2023-03-18T23:43:51.070Z,95428.78
2023-03-18T23:46:20.206Z,95433.97
2023-03-18T23:48:50.718Z,95432.66
2023-03-18T23:51:19.767Z,95420.44
2023-03-18T23:53:48.784Z,95425.81
2023-03-18T23:56:17.793Z,95432.78
2023-03-18T23:58:46.820Z,95424.34
